This is the latest recevied weather packets stored in our database for station/object KK7RJD. If no packets are shown the sender has not sent any weather packets the latest 10 day(s).
| Time | Temp. | Humidity | Pressure | Rain* | Wind** | Luminosity | Snow |
|---|---|---|---|---|---|---|---|
| 1778131858 | 10° C | 33% | 1012.9 hPa | 0 mm | - | 0 W/m² | - |
| 1778131555 | 10° C | 31% | 1012.7 hPa | 0 mm | - | 0 W/m² | - |
| 1778131251 | 10° C | 30% | 1012.4 hPa | 0 mm | - | 0 W/m² | - |
| 1778130949 | 10° C | 31% | 1011.9 hPa | 0 mm | - | 0 W/m² | - |
| 1778130646 | 10° C | 31% | 1011.8 hPa | 0 mm | - | 0 W/m² | - |
| 1778130342 | 9.44° C | 33% | 1011.7 hPa | 0 mm | - | 0 W/m² | - |
| 1778130039 | 9.44° C | 35% | 1011.2 hPa | 0 mm | - | 0 W/m² | - |
| 1778129736 | 9.44° C | 31% | 1011.1 hPa | 0 mm | - | 0 W/m² | - |
| 1778129433 | 9.44° C | 30% | 1011 hPa | 0 mm | - | 0 W/m² | - |
| 1778129130 | 9.44° C | 30% | 1011.2 hPa | 0 mm | - | 0 W/m² | - |
| 1778128826 | 10° C | 29% | 1011.2 hPa | 0 mm | - | 0 W/m² | - |
| 1778128522 | 10.56° C | 29% | 1011.3 hPa | 0 mm | - | 0 W/m² | - |
| 1778128220 | 10.56° C | 28% | 1011.2 hPa | 0 mm | - | 0 W/m² | - |
| 1778127916 | 11.11° C | 27% | 1011.6 hPa | 0 mm | - | 0 W/m² | - |
| 1778127611 | 11.11° C | 26% | 1011.5 hPa | 0 mm | - | 0 W/m² | - |
| 1778127308 | 11.67° C | 26% | 1011.6 hPa | 0 mm | - | 0 W/m² | - |
| 1778127005 | 11.67° C | 26% | 1011.9 hPa | 0 mm | - | 0 W/m² | - |
| 1778126701 | 11.11° C | 27% | 1012.1 hPa | 0 mm | - | 0 W/m² | - |
| 1778126397 | 11.11° C | 28% | 1011.7 hPa | 0 mm | - | 0 W/m² | - |
| 1778126094 | 11.11° C | 26% | 1012.1 hPa | 0 mm | - | 0 W/m² | - |
| 1778124580 | 11.67° C | 26% | 1011.9 hPa | 0 mm | - | 0 W/m² | - |
| 1778106386 | 15.56° C | 20% | 1012.7 hPa | 0 mm | - | 598 W/m² | - |
| 1778105174 | 16.11° C | 20% | 1012.9 hPa | 0 mm | - | 658 W/m² | - |
| 1778104566 | 15.56° C | 20% | 1013.2 hPa | 0 mm | - | 690 W/m² | - |
| 1778103354 | 15° C | 23% | 1013.4 hPa | 0 mm | - | 784 W/m² | - |
* Rain latest hour (hover to see other rain measurements)
** Current wind speed in m/s (hover to see current wind gust speed)